sensor_id;sensor_type;location;lat;lon;timestamp;P1;durP1;ratioP1;P2;durP2;ratioP2
15342;SDS011;7771;48.478;8.936;2023-07-02T00:01:21;1.67;;;1.58;;
15342;SDS011;7771;48.478;8.936;2023-07-02T00:03:48;3.12;;;1.70;;
15342;SDS011;7771;48.478;8.936;2023-07-02T00:06:15;3.28;;;1.70;;
15342;SDS011;7771;48.478;8.936;2023-07-02T00:08:43;1.75;;;1.65;;
15342;SDS011;7771;48.478;8.936;2023-07-02T00:11:11;3.08;;;1.90;;
15342;SDS011;7771;48.478;8.936;2023-07-02T00:13:38;3.35;;;1.80;;
15342;SDS011;7771;48.478;8.936;2023-07-02T00:16:04;1.80;;;1.70;;
15342;SDS011;7771;48.478;8.936;2023-07-02T00:18:31;1.67;;;1.58;;
15342;SDS011;7771;48.478;8.936;2023-07-02T00:21:00;2.08;;;1.40;;
15342;SDS011;7771;48.478;8.936;2023-07-02T00:23:27;2.00;;;1.80;;
15342;SDS011;7771;48.478;8.936;2023-07-02T00:25:54;1.80;;;1.65;;
15342;SDS011;7771;48.478;8.936;2023-07-02T00:28:20;1.73;;;1.50;;
15342;SDS011;7771;48.478;8.936;2023-07-02T00:30:48;3.08;;;1.60;;
15342;SDS011;7771;48.478;8.936;2023-07-02T00:33:15;1.73;;;1.62;;
15342;SDS011;7771;48.478;8.936;2023-07-02T00:35:42;1.67;;;1.58;;
15342;SDS011;7771;48.478;8.936;2023-07-02T00:38:09;1.87;;;1.65;;
15342;SDS011;7771;48.478;8.936;2023-07-02T00:40:36;1.60;;;1.50;;
15342;SDS011;7771;48.478;8.936;2023-07-02T00:43:03;1.60;;;1.50;;
15342;SDS011;7771;48.478;8.936;2023-07-02T00:45:30;1.67;;;1.58;;
15342;SDS011;7771;48.478;8.936;2023-07-02T00:47:57;2.12;;;1.92;;
15342;SDS011;7771;48.478;8.936;2023-07-02T00:50:25;2.03;;;1.77;;
15342;SDS011;7771;48.478;8.936;2023-07-02T00:52:52;2.85;;;1.45;;
15342;SDS011;7771;48.478;8.936;2023-07-02T00:55:19;2.65;;;1.75;;
15342;SDS011;7771;48.478;8.936;2023-07-02T00:57:47;1.98;;;1.60;;
15342;SDS011;7771;48.478;8.936;2023-07-02T01:00:15;2.62;;;2.25;;
15342;SDS011;7771;48.478;8.936;2023-07-02T01:02:42;2.83;;;1.87;;
15342;SDS011;7771;48.478;8.936;2023-07-02T01:05:14;2.22;;;1.77;;
15342;SDS011;7771;48.478;8.936;2023-07-02T01:07:41;2.50;;;2.17;;
15342;SDS011;7771;48.478;8.936;2023-07-02T01:10:09;3.78;;;2.33;;
15342;SDS011;7771;48.478;8.936;2023-07-02T01:12:36;2.30;;;2.10;;
15342;SDS011;7771;48.478;8.936;2023-07-02T01:15:03;2.55;;;2.08;;
15342;SDS011;7771;48.478;8.936;2023-07-02T01:17:30;2.12;;;1.92;;
15342;SDS011;7771;48.478;8.936;2023-07-02T01:19:57;3.12;;;2.30;;
15342;SDS011;7771;48.478;8.936;2023-07-02T01:22:25;2.62;;;2.00;;
15342;SDS011;7771;48.478;8.936;2023-07-02T01:24:52;4.00;;;2.60;;
15342;SDS011;7771;48.478;8.936;2023-07-02T01:27:18;2.37;;;2.00;;
15342;SDS011;7771;48.478;8.936;2023-07-02T01:29:46;2.03;;;1.83;;
15342;SDS011;7771;48.478;8.936;2023-07-02T01:32:13;2.37;;;2.17;;
15342;SDS011;7771;48.478;8.936;2023-07-02T01:34:40;2.37;;;2.10;;
15342;SDS011;7771;48.478;8.936;2023-07-02T01:37:08;2.35;;;2.15;;
15342;SDS011;7771;48.478;8.936;2023-07-02T01:39:35;2.17;;;2.03;;
15342;SDS011;7771;48.478;8.936;2023-07-02T01:42:08;2.15;;;1.92;;
15342;SDS011;7771;48.478;8.936;2023-07-02T01:44:33;3.08;;;2.40;;
15342;SDS011;7771;48.478;8.936;2023-07-02T01:47:00;3.72;;;2.22;;
15342;SDS011;7771;48.478;8.936;2023-07-02T01:49:28;3.20;;;2.05;;
15342;SDS011;7771;48.478;8.936;2023-07-02T01:51:55;2.70;;;2.25;;
15342;SDS011;7771;48.478;8.936;2023-07-02T01:54:24;3.20;;;2.00;;
15342;SDS011;7771;48.478;8.936;2023-07-02T01:56:49;3.90;;;2.17;;
15342;SDS011;7771;48.478;8.936;2023-07-02T01:59:18;1.90;;;1.70;;
15342;SDS011;7771;48.478;8.936;2023-07-02T02:01:44;3.17;;;2.05;;
15342;SDS011;7771;48.478;8.936;2023-07-02T02:04:12;2.50;;;2.10;;
15342;SDS011;7771;48.478;8.936;2023-07-02T02:06:38;2.62;;;2.42;;
15342;SDS011;7771;48.478;8.936;2023-07-02T02:11:38;3.22;;;2.15;;
15342;SDS011;7771;48.478;8.936;2023-07-02T02:14:02;1.77;;;1.67;;
15342;SDS011;7771;48.478;8.936;2023-07-02T02:16:30;2.55;;;2.35;;
15342;SDS011;7771;48.478;8.936;2023-07-02T02:18:57;2.40;;;2.10;;
15342;SDS011;7771;48.478;8.936;2023-07-02T02:21:24;2.17;;;1.80;;
15342;SDS011;7771;48.478;8.936;2023-07-02T02:23:52;2.30;;;2.10;;
15342;SDS011;7771;48.478;8.936;2023-07-02T02:26:19;3.12;;;1.92;;
15342;SDS011;7771;48.478;8.936;2023-07-02T02:28:46;2.10;;;1.90;;
15342;SDS011;7771;48.478;8.936;2023-07-02T02:31:13;2.83;;;2.12;;
15342;SDS011;7771;48.478;8.936;2023-07-02T02:33:40;2.58;;;2.20;;
15342;SDS011;7771;48.478;8.936;2023-07-02T02:36:08;2.50;;;2.17;;
15342;SDS011;7771;48.478;8.936;2023-07-02T02:38:35;2.42;;;2.22;;
15342;SDS011;7771;48.478;8.936;2023-07-02T02:41:02;7.35;;;3.20;;
15342;SDS011;7771;48.478;8.936;2023-07-02T02:43:29;3.33;;;2.20;;
15342;SDS011;7771;48.478;8.936;2023-07-02T02:45:57;3.37;;;2.80;;
15342;SDS011;7771;48.478;8.936;2023-07-02T02:48:24;2.25;;;2.05;;
15342;SDS011;7771;48.478;8.936;2023-07-02T02:50:51;3.25;;;2.17;;
15342;SDS011;7771;48.478;8.936;2023-07-02T02:53:18;3.12;;;2.10;;
15342;SDS011;7771;48.478;8.936;2023-07-02T02:55:45;2.33;;;2.10;;
15342;SDS011;7771;48.478;8.936;2023-07-02T02:58:12;2.55;;;2.35;;
15342;SDS011;7771;48.478;8.936;2023-07-02T03:00:39;2.72;;;2.42;;
15342;SDS011;7771;48.478;8.936;2023-07-02T03:03:08;2.58;;;2.37;;
15342;SDS011;7771;48.478;8.936;2023-07-02T03:05:34;4.22;;;2.05;;
15342;SDS011;7771;48.478;8.936;2023-07-02T03:08:02;3.37;;;2.62;;
15342;SDS011;7771;48.478;8.936;2023-07-02T03:10:29;2.40;;;2.20;;
15342;SDS011;7771;48.478;8.936;2023-07-02T03:12:56;4.25;;;2.17;;
15342;SDS011;7771;48.478;8.936;2023-07-02T03:18:09;2.60;;;2.40;;
15342;SDS011;7771;48.478;8.936;2023-07-02T03:20:36;4.45;;;2.35;;
15342;SDS011;7771;48.478;8.936;2023-07-02T03:23:03;3.90;;;2.65;;
15342;SDS011;7771;48.478;8.936;2023-07-02T03:25:31;5.70;;;2.92;;
15342;SDS011;7771;48.478;8.936;2023-07-02T03:27:58;4.85;;;2.47;;
15342;SDS011;7771;48.478;8.936;2023-07-02T03:30:27;4.78;;;2.70;;
15342;SDS011;7771;48.478;8.936;2023-07-02T03:32:54;3.58;;;2.55;;
15342;SDS011;7771;48.478;8.936;2023-07-02T03:35:20;5.25;;;2.75;;
15342;SDS011;7771;48.478;8.936;2023-07-02T03:37:48;5.93;;;3.70;;
15342;SDS011;7771;48.478;8.936;2023-07-02T03:40:15;4.90;;;3.53;;
15342;SDS011;7771;48.478;8.936;2023-07-02T03:42:42;5.68;;;3.42;;
15342;SDS011;7771;48.478;8.936;2023-07-02T03:45:08;5.05;;;3.28;;
15342;SDS011;7771;48.478;8.936;2023-07-02T03:47:35;4.03;;;3.60;;
15342;SDS011;7771;48.478;8.936;2023-07-02T03:50:02;5.35;;;3.10;;
15342;SDS011;7771;48.478;8.936;2023-07-02T03:52:29;6.87;;;3.97;;
15342;SDS011;7771;48.478;8.936;2023-07-02T03:54:57;5.20;;;3.22;;
15342;SDS011;7771;48.478;8.936;2023-07-02T03:57:24;4.55;;;3.25;;
15342;SDS011;7771;48.478;8.936;2023-07-02T03:59:50;3.33;;;2.58;;
15342;SDS011;7771;48.478;8.936;2023-07-02T04:02:17;3.70;;;2.60;;
15342;SDS011;7771;48.478;8.936;2023-07-02T04:04:44;5.72;;;3.87;;
15342;SDS011;7771;48.478;8.936;2023-07-02T04:07:11;4.18;;;2.70;;
15342;SDS011;7771;48.478;8.936;2023-07-02T04:09:38;2.92;;;2.42;;
15342;SDS011;7771;48.478;8.936;2023-07-02T04:12:07;3.37;;;2.60;;
15342;SDS011;7771;48.478;8.936;2023-07-02T04:14:33;2.40;;;2.20;;
15342;SDS011;7771;48.478;8.936;2023-07-02T04:17:01;3.00;;;2.60;;
15342;SDS011;7771;48.478;8.936;2023-07-02T04:19:31;2.45;;;2.25;;
15342;SDS011;7771;48.478;8.936;2023-07-02T04:21:57;2.42;;;2.22;;
15342;SDS011;7771;48.478;8.936;2023-07-02T04:24:25;5.23;;;2.67;;
15342;SDS011;7771;48.478;8.936;2023-07-02T04:26:51;2.55;;;2.30;;
15342;SDS011;7771;48.478;8.936;2023-07-02T04:29:19;5.15;;;2.78;;
15342;SDS011;7771;48.478;8.936;2023-07-02T04:31:45;3.53;;;2.20;;
15342;SDS011;7771;48.478;8.936;2023-07-02T04:34:13;4.65;;;2.05;;
15342;SDS011;7771;48.478;8.936;2023-07-02T04:36:39;2.28;;;2.08;;
15342;SDS011;7771;48.478;8.936;2023-07-02T04:39:07;2.22;;;1.90;;
15342;SDS011;7771;48.478;8.936;2023-07-02T04:41:33;3.47;;;2.10;;
15342;SDS011;7771;48.478;8.936;2023-07-02T04:44:00;3.58;;;2.22;;
15342;SDS011;7771;48.478;8.936;2023-07-02T04:46:28;2.92;;;1.90;;
15342;SDS011;7771;48.478;8.936;2023-07-02T04:48:54;2.42;;;2.20;;
15342;SDS011;7771;48.478;8.936;2023-07-02T04:51:21;1.92;;;1.80;;
15342;SDS011;7771;48.478;8.936;2023-07-02T04:53:49;4.55;;;2.33;;
15342;SDS011;7771;48.478;8.936;2023-07-02T04:56:16;2.15;;;1.90;;
15342;SDS011;7771;48.478;8.936;2023-07-02T04:58:44;2.17;;;1.98;;
15342;SDS011;7771;48.478;8.936;2023-07-02T05:01:12;2.40;;;2.03;;
15342;SDS011;7771;48.478;8.936;2023-07-02T05:03:38;2.37;;;2.17;;
15342;SDS011;7771;48.478;8.936;2023-07-02T05:06:05;3.72;;;2.08;;
15342;SDS011;7771;48.478;8.936;2023-07-02T05:08:33;2.33;;;2.00;;
15342;SDS011;7771;48.478;8.936;2023-07-02T05:11:00;2.05;;;1.70;;
15342;SDS011;7771;48.478;8.936;2023-07-02T05:13:27;2.33;;;1.60;;
15342;SDS011;7771;48.478;8.936;2023-07-02T05:15:54;2.70;;;1.60;;
15342;SDS011;7771;48.478;8.936;2023-07-02T05:18:21;1.73;;;1.62;;
15342;SDS011;7771;48.478;8.936;2023-07-02T05:20:49;2.80;;;2.20;;
15342;SDS011;7771;48.478;8.936;2023-07-02T05:23:16;3.80;;;2.55;;
15342;SDS011;7771;48.478;8.936;2023-07-02T05:25:43;7.35;;;2.22;;
15342;SDS011;7771;48.478;8.936;2023-07-02T05:28:09;4.57;;;2.03;;
15342;SDS011;7771;48.478;8.936;2023-07-02T05:30:36;3.65;;;2.25;;
15342;SDS011;7771;48.478;8.936;2023-07-02T05:33:04;3.72;;;2.40;;
15342;SDS011;7771;48.478;8.936;2023-07-02T05:35:31;3.67;;;2.22;;
15342;SDS011;7771;48.478;8.936;2023-07-02T05:38:00;2.75;;;2.00;;
15342;SDS011;7771;48.478;8.936;2023-07-02T05:40:26;2.62;;;2.42;;
15342;SDS011;7771;48.478;8.936;2023-07-02T05:42:53;1.95;;;1.80;;
15342;SDS011;7771;48.478;8.936;2023-07-02T05:45:20;2.40;;;2.20;;
15342;SDS011;7771;48.478;8.936;2023-07-02T05:47:48;3.47;;;2.30;;
15342;SDS011;7771;48.478;8.936;2023-07-02T05:50:16;3.25;;;2.30;;
15342;SDS011;7771;48.478;8.936;2023-07-02T05:52:44;2.37;;;2.03;;
15342;SDS011;7771;48.478;8.936;2023-07-02T05:55:12;2.78;;;2.47;;
15342;SDS011;7771;48.478;8.936;2023-07-02T05:57:38;3.00;;;2.10;;
15342;SDS011;7771;48.478;8.936;2023-07-02T06:00:05;4.80;;;2.50;;
15342;SDS011;7771;48.478;8.936;2023-07-02T06:02:33;4.70;;;2.55;;
15342;SDS011;7771;48.478;8.936;2023-07-02T06:05:00;2.30;;;2.05;;
15342;SDS011;7771;48.478;8.936;2023-07-02T06:07:29;3.72;;;2.42;;
15342;SDS011;7771;48.478;8.936;2023-07-02T06:09:55;2.80;;;2.37;;
15342;SDS011;7771;48.478;8.936;2023-07-02T06:12:23;3.10;;;2.12;;
15342;SDS011;7771;48.478;8.936;2023-07-02T06:14:51;3.45;;;2.75;;
15342;SDS011;7771;48.478;8.936;2023-07-02T06:17:17;4.07;;;2.85;;
15342;SDS011;7771;48.478;8.936;2023-07-02T06:19:45;6.25;;;2.70;;
15342;SDS011;7771;48.478;8.936;2023-07-02T06:22:13;3.42;;;2.33;;
15342;SDS011;7771;48.478;8.936;2023-07-02T06:24:39;3.17;;;2.58;;
15342;SDS011;7771;48.478;8.936;2023-07-02T06:27:07;3.00;;;2.70;;
15342;SDS011;7771;48.478;8.936;2023-07-02T06:29:34;5.30;;;3.20;;
15342;SDS011;7771;48.478;8.936;2023-07-02T06:32:02;5.62;;;3.85;;
15342;SDS011;7771;48.478;8.936;2023-07-02T06:34:30;6.95;;;4.15;;
15342;SDS011;7771;48.478;8.936;2023-07-02T06:36:56;7.78;;;4.18;;
15342;SDS011;7771;48.478;8.936;2023-07-02T06:39:23;5.72;;;4.00;;
15342;SDS011;7771;48.478;8.936;2023-07-02T06:41:51;5.53;;;3.90;;
15342;SDS011;7771;48.478;8.936;2023-07-02T06:44:18;7.10;;;4.65;;
15342;SDS011;7771;48.478;8.936;2023-07-02T06:46:46;6.43;;;4.18;;
15342;SDS011;7771;48.478;8.936;2023-07-02T06:49:12;6.68;;;4.32;;
15342;SDS011;7771;48.478;8.936;2023-07-02T06:51:40;6.35;;;3.90;;
15342;SDS011;7771;48.478;8.936;2023-07-02T06:54:06;4.78;;;3.53;;
15342;SDS011;7771;48.478;8.936;2023-07-02T06:56:33;6.47;;;4.28;;
15342;SDS011;7771;48.478;8.936;2023-07-02T06:59:01;6.07;;;3.58;;
15342;SDS011;7771;48.478;8.936;2023-07-02T07:01:28;5.40;;;4.05;;
15342;SDS011;7771;48.478;8.936;2023-07-02T07:03:55;6.20;;;4.72;;
15342;SDS011;7771;48.478;8.936;2023-07-02T07:06:22;5.45;;;4.10;;
15342;SDS011;7771;48.478;8.936;2023-07-02T07:08:49;8.07;;;4.90;;
15342;SDS011;7771;48.478;8.936;2023-07-02T07:11:17;5.93;;;4.28;;
15342;SDS011;7771;48.478;8.936;2023-07-02T07:13:45;9.30;;;4.70;;
15342;SDS011;7771;48.478;8.936;2023-07-02T07:16:15;8.20;;;4.82;;
15342;SDS011;7771;48.478;8.936;2023-07-02T07:18:43;9.32;;;4.40;;
15342;SDS011;7771;48.478;8.936;2023-07-02T07:21:09;7.30;;;4.57;;
15342;SDS011;7771;48.478;8.936;2023-07-02T07:23:37;8.65;;;5.25;;
15342;SDS011;7771;48.478;8.936;2023-07-02T07:26:04;9.20;;;5.50;;
15342;SDS011;7771;48.478;8.936;2023-07-02T07:28:31;8.50;;;5.65;;
15342;SDS011;7771;48.478;8.936;2023-07-02T07:30:58;11.40;;;5.80;;
15342;SDS011;7771;48.478;8.936;2023-07-02T07:33:24;8.35;;;5.70;;
15342;SDS011;7771;48.478;8.936;2023-07-02T07:35:52;10.05;;;5.85;;
15342;SDS011;7771;48.478;8.936;2023-07-02T07:38:20;13.43;;;6.75;;
15342;SDS011;7771;48.478;8.936;2023-07-02T07:40:46;9.02;;;5.68;;
15342;SDS011;7771;48.478;8.936;2023-07-02T07:43:13;9.75;;;6.55;;
15342;SDS011;7771;48.478;8.936;2023-07-02T07:45:40;10.38;;;6.37;;
15342;SDS011;7771;48.478;8.936;2023-07-02T07:48:06;8.77;;;6.28;;
15342;SDS011;7771;48.478;8.936;2023-07-02T07:50:34;11.65;;;6.45;;
15342;SDS011;7771;48.478;8.936;2023-07-02T07:53:02;10.25;;;6.85;;
15342;SDS011;7771;48.478;8.936;2023-07-02T07:55:29;12.48;;;6.05;;
15342;SDS011;7771;48.478;8.936;2023-07-02T07:57:57;11.52;;;7.50;;
15342;SDS011;7771;48.478;8.936;2023-07-02T08:00:23;11.50;;;7.15;;
15342;SDS011;7771;48.478;8.936;2023-07-02T08:02:52;11.43;;;6.87;;
15342;SDS011;7771;48.478;8.936;2023-07-02T08:05:18;11.45;;;7.90;;
15342;SDS011;7771;48.478;8.936;2023-07-02T08:07:47;13.15;;;7.60;;
15342;SDS011;7771;48.478;8.936;2023-07-02T08:10:15;12.10;;;7.75;;
15342;SDS011;7771;48.478;8.936;2023-07-02T08:12:41;14.57;;;8.38;;
15342;SDS011;7771;48.478;8.936;2023-07-02T08:15:09;11.48;;;7.80;;
15342;SDS011;7771;48.478;8.936;2023-07-02T08:17:35;15.55;;;7.78;;
15342;SDS011;7771;48.478;8.936;2023-07-02T08:20:02;13.95;;;8.20;;
15342;SDS011;7771;48.478;8.936;2023-07-02T08:22:30;11.68;;;8.38;;
15342;SDS011;7771;48.478;8.936;2023-07-02T08:24:56;15.05;;;10.00;;
15342;SDS011;7771;48.478;8.936;2023-07-02T08:27:24;16.77;;;10.65;;
15342;SDS011;7771;48.478;8.936;2023-07-02T08:29:52;11.77;;;8.63;;
15342;SDS011;7771;48.478;8.936;2023-07-02T08:32:20;12.13;;;8.25;;
15342;SDS011;7771;48.478;8.936;2023-07-02T08:34:48;12.15;;;8.00;;
15342;SDS011;7771;48.478;8.936;2023-07-02T08:37:17;15.85;;;8.90;;
15342;SDS011;7771;48.478;8.936;2023-07-02T08:39:44;10.95;;;8.43;;
15342;SDS011;7771;48.478;8.936;2023-07-02T08:42:11;11.95;;;8.27;;
15342;SDS011;7771;48.478;8.936;2023-07-02T08:44:38;13.52;;;8.88;;
15342;SDS011;7771;48.478;8.936;2023-07-02T08:47:05;13.45;;;8.00;;
15342;SDS011;7771;48.478;8.936;2023-07-02T08:49:31;11.60;;;7.87;;
15342;SDS011;7771;48.478;8.936;2023-07-02T08:51:58;12.27;;;7.82;;
15342;SDS011;7771;48.478;8.936;2023-07-02T08:54:25;11.02;;;7.40;;
15342;SDS011;7771;48.478;8.936;2023-07-02T08:56:52;12.02;;;8.48;;
15342;SDS011;7771;48.478;8.936;2023-07-02T08:59:19;16.80;;;8.68;;
15342;SDS011;7771;48.478;8.936;2023-07-02T09:01:50;10.68;;;7.20;;
15342;SDS011;7771;48.478;8.936;2023-07-02T09:04:17;12.48;;;8.00;;
15342;SDS011;7771;48.478;8.936;2023-07-02T09:06:47;11.80;;;8.32;;
15342;SDS011;7771;48.478;8.936;2023-07-02T09:09:14;14.52;;;8.43;;
15342;SDS011;7771;48.478;8.936;2023-07-02T09:11:46;13.18;;;8.73;;
15342;SDS011;7771;48.478;8.936;2023-07-02T09:14:12;14.48;;;8.77;;
15342;SDS011;7771;48.478;8.936;2023-07-02T09:16:39;14.82;;;8.95;;
15342;SDS011;7771;48.478;8.936;2023-07-02T09:19:06;13.93;;;8.25;;
15342;SDS011;7771;48.478;8.936;2023-07-02T09:21:40;12.75;;;8.88;;
15342;SDS011;7771;48.478;8.936;2023-07-02T09:24:21;14.20;;;8.82;;
15342;SDS011;7771;48.478;8.936;2023-07-02T09:26:48;12.85;;;8.73;;
15342;SDS011;7771;48.478;8.936;2023-07-02T09:29:21;13.35;;;9.15;;
15342;SDS011;7771;48.478;8.936;2023-07-02T09:31:48;15.40;;;9.57;;
15342;SDS011;7771;48.478;8.936;2023-07-02T09:34:16;15.88;;;9.98;;
15342;SDS011;7771;48.478;8.936;2023-07-02T09:36:44;13.93;;;10.65;;
15342;SDS011;7771;48.478;8.936;2023-07-02T09:39:13;13.82;;;10.65;;
15342;SDS011;7771;48.478;8.936;2023-07-02T09:41:40;13.48;;;10.25;;
15342;SDS011;7771;48.478;8.936;2023-07-02T09:44:07;15.95;;;10.82;;
15342;SDS011;7771;48.478;8.936;2023-07-02T09:46:34;14.95;;;10.75;;
15342;SDS011;7771;48.478;8.936;2023-07-02T09:49:00;19.12;;;11.48;;
15342;SDS011;7771;48.478;8.936;2023-07-02T09:51:27;14.35;;;10.40;;
15342;SDS011;7771;48.478;8.936;2023-07-02T09:53:54;16.45;;;11.60;;
15342;SDS011;7771;48.478;8.936;2023-07-02T09:56:21;14.38;;;11.60;;
15342;SDS011;7771;48.478;8.936;2023-07-02T09:58:48;17.98;;;11.73;;
15342;SDS011;7771;48.478;8.936;2023-07-02T10:01:15;16.70;;;11.07;;
15342;SDS011;7771;48.478;8.936;2023-07-02T10:03:43;17.30;;;11.73;;
15342;SDS011;7771;48.478;8.936;2023-07-02T10:06:10;16.52;;;12.48;;
15342;SDS011;7771;48.478;8.936;2023-07-02T10:08:37;18.90;;;11.77;;
15342;SDS011;7771;48.478;8.936;2023-07-02T10:11:08;16.23;;;12.68;;
15342;SDS011;7771;48.478;8.936;2023-07-02T10:13:34;19.42;;;14.73;;
15342;SDS011;7771;48.478;8.936;2023-07-02T10:16:02;19.73;;;13.90;;
15342;SDS011;7771;48.478;8.936;2023-07-02T10:18:29;17.15;;;12.75;;
15342;SDS011;7771;48.478;8.936;2023-07-02T10:20:57;17.30;;;12.75;;
15342;SDS011;7771;48.478;8.936;2023-07-02T10:28:33;18.52;;;13.98;;
15342;SDS011;7771;48.478;8.936;2023-07-02T10:31:01;17.62;;;13.93;;
15342;SDS011;7771;48.478;8.936;2023-07-02T10:33:30;24.33;;;15.95;;
15342;SDS011;7771;48.478;8.936;2023-07-02T10:35:58;23.45;;;14.27;;
15342;SDS011;7771;48.478;8.936;2023-07-02T10:38:24;27.33;;;18.40;;
15342;SDS011;7771;48.478;8.936;2023-07-02T10:40:56;22.83;;;15.63;;
15342;SDS011;7771;48.478;8.936;2023-07-02T10:43:24;22.10;;;15.45;;
15342;SDS011;7771;48.478;8.936;2023-07-02T10:45:51;22.30;;;17.15;;
15342;SDS011;7771;48.478;8.936;2023-07-02T10:48:18;22.73;;;15.15;;
15342;SDS011;7771;48.478;8.936;2023-07-02T10:50:45;20.23;;;15.77;;
15342;SDS011;7771;48.478;8.936;2023-07-02T10:53:15;21.37;;;16.27;;
15342;SDS011;7771;48.478;8.936;2023-07-02T10:55:43;22.08;;;15.75;;
15342;SDS011;7771;48.478;8.936;2023-07-02T10:58:11;21.05;;;15.45;;
15342;SDS011;7771;48.478;8.936;2023-07-02T11:00:43;25.05;;;15.88;;
15342;SDS011;7771;48.478;8.936;2023-07-02T11:03:19;23.10;;;16.80;;
15342;SDS011;7771;48.478;8.936;2023-07-02T11:05:47;21.90;;;15.85;;
15342;SDS011;7771;48.478;8.936;2023-07-02T11:08:14;22.62;;;16.15;;
15342;SDS011;7771;48.478;8.936;2023-07-02T11:10:40;20.62;;;14.98;;
15342;SDS011;7771;48.478;8.936;2023-07-02T11:13:12;23.90;;;15.68;;
15342;SDS011;7771;48.478;8.936;2023-07-02T11:15:38;17.73;;;14.00;;
15342;SDS011;7771;48.478;8.936;2023-07-02T11:18:09;23.58;;;16.48;;
15342;SDS011;7771;48.478;8.936;2023-07-02T11:20:37;17.83;;;13.27;;
15342;SDS011;7771;48.478;8.936;2023-07-02T11:23:04;19.80;;;13.55;;
15342;SDS011;7771;48.478;8.936;2023-07-02T11:25:32;17.85;;;13.60;;
15342;SDS011;7771;48.478;8.936;2023-07-02T11:28:02;18.77;;;13.13;;
15342;SDS011;7771;48.478;8.936;2023-07-02T11:30:28;17.55;;;13.45;;
15342;SDS011;7771;48.478;8.936;2023-07-02T11:32:55;16.58;;;12.45;;
15342;SDS011;7771;48.478;8.936;2023-07-02T11:35:22;20.33;;;13.70;;
15342;SDS011;7771;48.478;8.936;2023-07-02T11:37:49;16.75;;;12.77;;
15342;SDS011;7771;48.478;8.936;2023-07-02T11:40:17;15.52;;;11.98;;
15342;SDS011;7771;48.478;8.936;2023-07-02T11:42:44;18.15;;;12.80;;
15342;SDS011;7771;48.478;8.936;2023-07-02T11:45:11;17.23;;;11.88;;
15342;SDS011;7771;48.478;8.936;2023-07-02T11:47:38;18.25;;;13.20;;
15342;SDS011;7771;48.478;8.936;2023-07-02T11:50:05;16.62;;;12.65;;
15342;SDS011;7771;48.478;8.936;2023-07-02T11:52:31;14.55;;;11.77;;
15342;SDS011;7771;48.478;8.936;2023-07-02T11:54:59;16.15;;;12.60;;
15342;SDS011;7771;48.478;8.936;2023-07-02T11:57:25;18.67;;;12.27;;
15342;SDS011;7771;48.478;8.936;2023-07-02T11:59:53;17.20;;;13.70;;
15342;SDS011;7771;48.478;8.936;2023-07-02T12:02:20;21.37;;;13.18;;
15342;SDS011;7771;48.478;8.936;2023-07-02T12:04:46;16.42;;;13.25;;
15342;SDS011;7771;48.478;8.936;2023-07-02T12:07:15;15.63;;;12.60;;
15342;SDS011;7771;48.478;8.936;2023-07-02T12:09:41;20.48;;;13.00;;
15342;SDS011;7771;48.478;8.936;2023-07-02T12:12:08;18.00;;;13.02;;
15342;SDS011;7771;48.478;8.936;2023-07-02T12:14:36;16.40;;;11.57;;
15342;SDS011;7771;48.478;8.936;2023-07-02T12:17:03;16.35;;;12.25;;
15342;SDS011;7771;48.478;8.936;2023-07-02T12:19:30;18.33;;;12.52;;
15342;SDS011;7771;48.478;8.936;2023-07-02T12:21:58;16.48;;;11.60;;
15342;SDS011;7771;48.478;8.936;2023-07-02T12:24:24;17.00;;;12.23;;
15342;SDS011;7771;48.478;8.936;2023-07-02T12:26:52;16.10;;;11.85;;
15342;SDS011;7771;48.478;8.936;2023-07-02T12:29:18;17.70;;;12.20;;
15342;SDS011;7771;48.478;8.936;2023-07-02T12:31:47;16.42;;;11.82;;
15342;SDS011;7771;48.478;8.936;2023-07-02T12:34:13;16.65;;;12.85;;
15342;SDS011;7771;48.478;8.936;2023-07-02T12:36:41;17.48;;;12.70;;
15342;SDS011;7771;48.478;8.936;2023-07-02T12:39:07;17.87;;;11.98;;
15342;SDS011;7771;48.478;8.936;2023-07-02T12:41:34;14.25;;;12.13;;
15342;SDS011;7771;48.478;8.936;2023-07-02T12:44:01;20.77;;;12.93;;
15342;SDS011;7771;48.478;8.936;2023-07-02T12:46:29;20.37;;;14.07;;
15342;SDS011;7771;48.478;8.936;2023-07-02T12:48:55;19.45;;;14.35;;
15342;SDS011;7771;48.478;8.936;2023-07-02T12:51:22;23.75;;;15.93;;
15342;SDS011;7771;48.478;8.936;2023-07-02T12:53:50;21.25;;;15.73;;
15342;SDS011;7771;48.478;8.936;2023-07-02T12:56:17;25.15;;;16.58;;
15342;SDS011;7771;48.478;8.936;2023-07-02T12:58:44;21.48;;;15.40;;
15342;SDS011;7771;48.478;8.936;2023-07-02T13:01:11;18.42;;;14.32;;
15342;SDS011;7771;48.478;8.936;2023-07-02T13:03:38;22.45;;;15.80;;
15342;SDS011;7771;48.478;8.936;2023-07-02T13:06:05;22.20;;;15.90;;
15342;SDS011;7771;48.478;8.936;2023-07-02T13:08:32;19.17;;;14.63;;
15342;SDS011;7771;48.478;8.936;2023-07-02T13:11:00;21.08;;;14.75;;
15342;SDS011;7771;48.478;8.936;2023-07-02T13:13:27;20.20;;;15.40;;
15342;SDS011;7771;48.478;8.936;2023-07-02T13:15:54;20.15;;;14.50;;
15342;SDS011;7771;48.478;8.936;2023-07-02T13:18:20;19.60;;;14.52;;
15342;SDS011;7771;48.478;8.936;2023-07-02T13:20:47;18.08;;;14.98;;
15342;SDS011;7771;48.478;8.936;2023-07-02T13:23:14;18.58;;;14.35;;
15342;SDS011;7771;48.478;8.936;2023-07-02T13:25:41;17.55;;;13.60;;
15342;SDS011;7771;48.478;8.936;2023-07-02T13:28:08;19.60;;;13.68;;
15342;SDS011;7771;48.478;8.936;2023-07-02T13:30:35;21.62;;;15.35;;
15342;SDS011;7771;48.478;8.936;2023-07-02T13:33:03;20.02;;;13.93;;
15342;SDS011;7771;48.478;8.936;2023-07-02T13:35:29;18.52;;;13.73;;
15342;SDS011;7771;48.478;8.936;2023-07-02T13:37:56;18.70;;;13.85;;
15342;SDS011;7771;48.478;8.936;2023-07-02T13:40:23;18.73;;;14.23;;
15342;SDS011;7771;48.478;8.936;2023-07-02T13:42:49;19.67;;;14.80;;
15342;SDS011;7771;48.478;8.936;2023-07-02T13:45:17;19.48;;;14.48;;
15342;SDS011;7771;48.478;8.936;2023-07-02T13:47:44;19.10;;;14.68;;
15342;SDS011;7771;48.478;8.936;2023-07-02T13:50:11;20.23;;;14.25;;
15342;SDS011;7771;48.478;8.936;2023-07-02T13:52:38;17.00;;;12.90;;
15342;SDS011;7771;48.478;8.936;2023-07-02T13:55:06;19.23;;;13.60;;
15342;SDS011;7771;48.478;8.936;2023-07-02T13:57:32;17.67;;;12.82;;
15342;SDS011;7771;48.478;8.936;2023-07-02T14:00:00;18.40;;;13.52;;
15342;SDS011;7771;48.478;8.936;2023-07-02T14:02:27;17.85;;;13.25;;
15342;SDS011;7771;48.478;8.936;2023-07-02T14:04:54;17.05;;;12.37;;
15342;SDS011;7771;48.478;8.936;2023-07-02T14:07:23;17.25;;;12.88;;
15342;SDS011;7771;48.478;8.936;2023-07-02T14:09:49;14.75;;;12.52;;
15342;SDS011;7771;48.478;8.936;2023-07-02T14:12:16;19.40;;;13.25;;
15342;SDS011;7771;48.478;8.936;2023-07-02T14:14:44;14.95;;;11.98;;
15342;SDS011;7771;48.478;8.936;2023-07-02T14:17:11;17.65;;;11.90;;
15342;SDS011;7771;48.478;8.936;2023-07-02T14:19:38;16.77;;;12.32;;
15342;SDS011;7771;48.478;8.936;2023-07-02T14:22:05;15.90;;;12.68;;
15342;SDS011;7771;48.478;8.936;2023-07-02T14:24:34;16.15;;;11.90;;
15342;SDS011;7771;48.478;8.936;2023-07-02T14:27:00;16.35;;;11.52;;
15342;SDS011;7771;48.478;8.936;2023-07-02T14:29:27;14.13;;;11.77;;
15342;SDS011;7771;48.478;8.936;2023-07-02T14:31:55;16.27;;;12.02;;
15342;SDS011;7771;48.478;8.936;2023-07-02T14:34:23;15.15;;;11.75;;
15342;SDS011;7771;48.478;8.936;2023-07-02T14:36:49;13.13;;;11.07;;
15342;SDS011;7771;48.478;8.936;2023-07-02T14:39:16;13.48;;;10.95;;
15342;SDS011;7771;48.478;8.936;2023-07-02T14:41:44;14.73;;;10.70;;
15342;SDS011;7771;48.478;8.936;2023-07-02T14:44:11;15.55;;;11.40;;
15342;SDS011;7771;48.478;8.936;2023-07-02T14:46:37;15.00;;;10.68;;
15342;SDS011;7771;48.478;8.936;2023-07-02T14:49:04;16.10;;;11.35;;
15342;SDS011;7771;48.478;8.936;2023-07-02T14:51:31;13.93;;;10.70;;
15342;SDS011;7771;48.478;8.936;2023-07-02T14:53:58;15.30;;;11.55;;
15342;SDS011;7771;48.478;8.936;2023-07-02T14:56:24;13.70;;;11.23;;
15342;SDS011;7771;48.478;8.936;2023-07-02T14:58:52;14.65;;;11.23;;
15342;SDS011;7771;48.478;8.936;2023-07-02T15:01:18;14.30;;;10.95;;